Time;durP1;ratioP1;P1;durP2;ratioP2;P2;SDS_P1;SDS_P2;PMS_P1;PMS_P2;Temp;Humidity;BMP_temperature;BMP_pressure;BME280_temperature;BME280_humidity;BME280_pressure;Samples;Min_cycle;Max_cycle;Signal;HPM_P1;HPM_P2
2024/02/22 00:02:00;;;;;;;5.50;5.00;;;11.40;99.90;;;;;;5079624;28;20211;-90
2024/02/22 00:04:26;;;;;;;5.97;5.37;;;11.60;99.90;;;;;;5080484;28;20221;-90
2024/02/22 00:06:51;;;;;;;5.30;4.80;;;11.40;99.90;;;;;;5078875;28;20183;-88
2024/02/22 00:09:17;;;;;;;6.13;4.73;;;11.40;99.90;;;;;;5078778;28;21101;-90
2024/02/22 00:11:43;;;;;;;5.57;4.53;;;11.50;99.90;;;;;;5078769;28;20168;-83
2024/02/22 00:14:08;;;;;;;5.20;4.70;;;11.40;99.90;;;;;;5078562;28;20174;-88
2024/02/22 00:16:34;;;;;;;5.50;5.00;;;11.40;99.90;;;;;;5078152;28;20618;-87
2024/02/22 00:19:00;;;;;;;5.73;4.80;;;11.50;99.90;;;;;;5079208;28;20683;-83
2024/02/22 00:21:26;;;;;;;6.23;4.53;;;11.40;99.90;;;;;;5078328;28;20249;-89
2024/02/22 00:23:51;;;;;;;5.37;4.80;;;11.40;99.90;;;;;;5078359;28;20259;-91
2024/02/22 00:26:17;;;;;;;5.30;4.80;;;11.40;99.90;;;;;;5079371;28;20702;-82
2024/02/22 00:28:43;;;;;;;5.23;4.73;;;11.40;99.90;;;;;;5078780;28;20292;-89
2024/02/22 00:31:09;;;;;;;5.17;4.67;;;11.50;99.90;;;;;;5078839;28;20176;-88
2024/02/22 00:33:34;;;;;;;5.67;5.07;;;11.40;99.90;;;;;;5079460;28;20196;-92
2024/02/22 00:36:00;;;;;;;5.73;5.00;;;11.50;99.90;;;;;;5078861;28;20166;-86
2024/02/22 00:38:26;;;;;;;5.77;5.13;;;11.50;99.90;;;;;;5078620;28;20195;-86
2024/02/22 00:40:52;;;;;;;5.37;4.87;;;11.40;99.90;;;;;;5078479;28;20175;-90
2024/02/22 00:43:18;;;;;;;6.97;5.30;;;11.50;99.90;;;;;;5079142;28;20191;-89
2024/02/22 00:45:43;;;;;;;6.17;5.27;;;11.50;99.90;;;;;;5078893;28;20775;-86
2024/02/22 00:48:09;;;;;;;5.77;4.90;;;11.50;99.90;;;;;;5096861;28;20179;-89
2024/02/22 00:50:35;;;;;;;6.07;5.47;;;11.60;99.90;;;;;;5078604;28;20207;-86
2024/02/22 00:53:01;;;;;;;6.00;5.37;;;11.60;99.90;;;;;;5079041;28;20167;-88
2024/02/22 00:55:27;;;;;;;6.00;5.40;;;11.60;99.90;;;;;;5078739;28;20172;-86
2024/02/22 00:57:52;;;;;;;5.63;5.13;;;11.60;99.90;;;;;;5078588;28;20175;-84
2024/02/22 01:00:18;;;;;;;6.73;5.53;;;11.60;99.90;;;;;;5079002;28;20233;-86
2024/02/22 01:02:44;;;;;;;5.97;5.40;;;11.70;99.90;;;;;;5077027;28;20231;-91
2024/02/22 01:05:09;;;;;;;6.27;5.40;;;11.60;99.90;;;;;;5077381;28;20174;-83
2024/02/22 01:07:35;;;;;;;6.00;5.50;;;11.70;99.90;;;;;;5096385;28;20634;-85
2024/02/22 01:10:00;;;;;;;6.10;5.47;;;11.70;99.90;;;;;;5078744;28;20164;-85
2024/02/22 01:12:27;;;;;;;5.97;5.37;;;11.70;99.90;;;;;;5078123;28;20716;-87
2024/02/22 01:14:53;;;;;;;5.97;5.47;;;11.70;99.90;;;;;;5098546;28;20655;-89
2024/02/22 01:17:18;;;;;;;5.60;5.10;;;11.70;99.90;;;;;;5081789;28;20311;-82
2024/02/22 01:19:45;;;;;;;6.10;4.90;;;11.70;99.90;;;;;;5085263;28;20668;-88
2024/02/22 01:22:11;;;;;;;6.20;5.60;;;11.70;99.90;;;;;;5077942;28;20253;-89
2024/02/22 01:24:37;;;;;;;6.20;5.60;;;11.70;99.90;;;;;;5077657;28;20168;-90
2024/02/22 01:27:03;;;;;;;6.00;5.40;;;11.90;99.90;;;;;;5077968;28;20400;-91
2024/02/22 01:29:29;;;;;;;6.57;5.53;;;11.80;99.90;;;;;;5077817;28;20165;-86
2024/02/22 01:31:55;;;;;;;6.30;5.70;;;12.00;99.90;;;;;;5077452;28;20172;-87
2024/02/22 01:34:20;;;;;;;6.73;5.53;;;11.90;99.90;;;;;;5077134;28;20177;-89
2024/02/22 01:36:47;;;;;;;6.50;4.90;;;11.80;99.90;;;;;;5078178;28;20172;-85
2024/02/22 01:39:13;;;;;;;5.60;5.00;;;11.90;99.90;;;;;;5077435;28;20168;-89
2024/02/22 01:41:39;;;;;;;6.43;5.10;;;11.90;99.90;;;;;;5077742;28;20677;-87
2024/02/22 01:44:04;;;;;;;6.00;5.10;;;12.00;99.90;;;;;;5077772;28;20177;-92
2024/02/22 01:46:31;;;;;;;5.97;4.73;;;12.00;99.90;;;;;;5077553;28;20179;-89
2024/02/22 01:48:57;;;;;;;5.83;5.27;;;11.90;99.90;;;;;;5076911;28;20173;-90
2024/02/22 01:51:24;;;;;;;5.37;4.77;;;11.90;99.90;;;;;;5077132;28;20171;-91
2024/02/22 01:53:50;;;;;;;5.07;4.57;;;12.00;99.90;;;;;;5076832;28;20193;-91
2024/02/22 01:56:20;;;;;;;5.10;4.60;;;12.00;99.90;;;;;;5077190;28;20179;-91
2024/02/22 01:58:49;;;;;;;5.00;4.50;;;12.00;99.90;;;;;;5077215;28;20168;-90
2024/02/22 02:01:16;;;;;;;6.57;4.50;;;11.90;99.90;;;;;;5094892;28;20188;-88
2024/02/22 02:03:43;;;;;;;5.03;4.53;;;11.90;99.90;;;;;;5095545;28;20190;-88
2024/02/22 02:06:09;;;;;;;5.00;4.33;;;12.00;99.90;;;;;;5096563;28;20206;-87
2024/02/22 02:08:36;;;;;;;5.13;4.03;;;12.00;99.90;;;;;;5094977;28;20183;-83
2024/02/22 02:11:02;;;;;;;5.33;4.50;;;12.00;99.90;;;;;;5077026;28;20175;-89
2024/02/22 02:13:28;;;;;;;5.57;3.87;;;12.00;99.90;;;;;;5076405;28;20175;-88
2024/02/22 02:15:54;;;;;;;5.47;3.87;;;12.10;99.90;;;;;;5076294;28;20730;-83
2024/02/22 02:18:20;;;;;;;5.80;4.07;;;12.10;99.90;;;;;;5076359;28;20264;-89
2024/02/22 02:20:48;;;;;;;4.57;3.53;;;12.10;99.90;;;;;;5076269;28;20168;-89
2024/02/22 02:23:34;;;;;;;5.10;3.77;;;12.10;99.90;;;;;;5094883;28;20205;-91
2024/02/22 02:26:00;;;;;;;4.97;3.80;;;12.10;99.90;;;;;;5076563;28;20673;-83
2024/02/22 02:28:26;;;;;;;3.80;3.30;;;12.10;99.90;;;;;;5076914;28;20505;-86
2024/02/22 02:30:52;;;;;;;4.00;3.30;;;11.90;99.90;;;;;;5076626;28;20190;-86
2024/02/22 02:33:17;;;;;;;4.73;3.60;;;11.90;99.90;;;;;;5076636;28;20172;-84
2024/02/22 02:35:43;;;;;;;3.93;3.17;;;11.80;99.90;;;;;;5076672;28;20168;-89
2024/02/22 02:38:13;;;;;;;4.47;2.87;;;11.80;99.90;;;;;;5094290;28;20271;-89
2024/02/22 02:40:39;;;;;;;4.23;3.17;;;11.70;99.90;;;;;;5093999;28;20172;-89
2024/02/22 02:43:05;;;;;;;4.37;3.17;;;11.60;99.90;;;;;;5076008;28;20199;-88
2024/02/22 02:45:31;;;;;;;4.07;2.80;;;11.60;99.90;;;;;;5076019;28;20177;-89
2024/02/22 02:47:56;;;;;;;4.23;2.70;;;11.60;99.90;;;;;;5076225;28;20192;-88
2024/02/22 02:50:22;;;;;;;3.40;2.37;;;11.60;99.90;;;;;;5077441;28;20176;-88
2024/02/22 02:52:48;;;;;;;4.87;2.47;;;11.60;99.90;;;;;;5077244;28;20184;-88
2024/02/22 02:55:14;;;;;;;4.03;2.67;;;11.50;99.90;;;;;;5079851;28;20602;-88
2024/02/22 02:57:42;;;;;;;4.07;2.33;;;11.50;99.90;;;;;;5077599;28;20180;-91
2024/02/22 03:00:14;;;;;;;4.73;2.07;;;11.40;99.90;;;;;;5077114;28;20175;-91
2024/02/22 03:02:40;;;;;;;4.67;2.13;;;11.40;99.90;;;;;;5076832;28;20537;-87
2024/02/22 03:05:07;;;;;;;4.80;2.20;;;11.50;99.90;;;;;;5076454;28;20223;-90
2024/02/22 03:07:35;;;;;;;3.83;2.10;;;11.50;99.90;;;;;;5077842;28;20664;-86
2024/02/22 03:10:00;;;;;;;3.67;1.90;;;11.50;99.90;;;;;;5082069;28;20175;-88
2024/02/22 03:12:26;;;;;;;3.47;1.87;;;11.50;99.90;;;;;;5079704;28;20172;-83
2024/02/22 03:14:52;;;;;;;2.47;1.47;;;11.50;99.90;;;;;;5075665;28;20175;-90
2024/02/22 03:17:18;;;;;;;3.40;1.60;;;11.50;99.90;;;;;;5075827;28;20186;-89
2024/02/22 03:19:44;;;;;;;2.93;1.60;;;11.40;99.90;;;;;;5075918;28;20227;-87
2024/02/22 03:22:10;;;;;;;2.80;1.60;;;11.40;99.90;;;;;;5074514;28;20501;-90
2024/02/22 03:24:36;;;;;;;2.83;1.63;;;11.40;99.90;;;;;;5075277;28;20264;-86
2024/02/22 03:27:03;;;;;;;3.03;1.70;;;11.40;99.90;;;;;;5092435;28;20180;-90
2024/02/22 03:29:29;;;;;;;3.53;1.70;;;11.40;99.90;;;;;;5075471;28;20271;-83
2024/02/22 03:31:55;;;;;;;3.40;1.70;;;11.30;99.90;;;;;;5075775;28;20215;-91
2024/02/22 03:34:22;;;;;;;4.13;1.67;;;11.40;99.90;;;;;;5074654;28;20309;-88
2024/02/22 03:36:48;;;;;;;2.50;1.53;;;11.50;99.90;;;;;;5075194;28;20215;-83
2024/02/22 03:39:14;;;;;;;4.63;1.83;;;11.50;99.90;;;;;;5075619;28;20176;-87
2024/02/22 03:41:40;;;;;;;3.80;1.50;;;11.50;99.90;;;;;;5075445;28;20318;-86
2024/02/22 03:44:06;;;;;;;3.00;1.20;;;11.50;99.90;;;;;;5075171;28;20242;-87
2024/02/22 03:46:31;;;;;;;3.47;1.70;;;11.80;99.90;;;;;;5075330;28;20188;-88
2024/02/22 03:48:57;;;;;;;3.30;1.50;;;11.70;99.90;;;;;;5075829;28;20234;-87
2024/02/22 03:51:23;;;;;;;4.80;2.07;;;11.70;99.90;;;;;;5074861;28;20176;-91
2024/02/22 03:53:49;;;;;;;3.17;1.33;;;11.60;99.90;;;;;;5075535;28;20266;-81
2024/02/22 03:56:18;;;;;;;4.43;2.00;;;11.70;99.90;;;;;;5075011;28;20196;-83
2024/02/22 03:58:44;;;;;;;4.43;1.80;;;11.60;99.90;;;;;;5075225;28;20183;-87
2024/02/22 04:01:10;;;;;;;3.43;1.70;;;11.80;99.90;;;;;;5074363;28;20188;-85
2024/02/22 04:03:36;;;;;;;4.17;1.90;;;11.70;99.90;;;;;;5092965;28;20312;-85
2024/02/22 04:06:03;;;;;;;4.60;1.90;;;11.80;99.90;;;;;;5074757;28;20553;-83
2024/02/22 04:08:29;;;;;;;2.87;1.73;;;11.60;99.90;;;;;;5075182;28;20180;-89
2024/02/22 04:10:54;;;;;;;3.53;1.67;;;11.60;99.90;;;;;;5074960;28;20225;-91
2024/02/22 04:13:20;;;;;;;3.40;1.97;;;11.50;99.90;;;;;;5075070;28;20180;-91
2024/02/22 04:15:47;;;;;;;2.87;1.60;;;11.30;99.90;;;;;;5075964;28;20177;-88
2024/02/22 04:18:13;;;;;;;4.60;1.90;;;11.30;99.90;;;;;;5074613;28;20293;-91
2024/02/22 04:20:39;;;;;;;5.63;1.80;;;11.20;99.90;;;;;;5092674;28;20275;-88
2024/02/22 04:23:04;;;;;;;3.57;1.50;;;11.30;99.90;;;;;;5075046;28;20722;-88
2024/02/22 04:25:30;;;;;;;2.60;1.57;;;11.20;99.90;;;;;;5074025;28;20310;-89
2024/02/22 04:27:56;;;;;;;3.57;1.80;;;11.30;99.90;;;;;;5074477;28;20180;-86
2024/02/22 04:30:21;;;;;;;3.60;1.43;;;11.20;99.90;;;;;;5074932;28;20182;-86
2024/02/22 04:32:47;;;;;;;2.73;1.60;;;11.30;99.90;;;;;;5075273;28;20183;-86
2024/02/22 04:35:13;;;;;;;2.07;1.00;;;11.20;99.90;;;;;;5108971;28;20176;-86
2024/02/22 04:37:39;;;;;;;2.77;1.20;;;11.20;99.90;;;;;;5115245;28;20198;-84
2024/02/22 04:40:07;;;;;;;1.77;1.27;;;11.20;99.90;;;;;;5098427;28;20170;-89
2024/02/22 04:42:32;;;;;;;1.87;0.97;;;11.20;99.90;;;;;;5098069;28;20297;-84
2024/02/22 04:44:58;;;;;;;1.20;1.00;;;11.20;99.90;;;;;;5098629;28;20202;-85
2024/02/22 04:47:24;;;;;;;2.20;1.00;;;11.30;99.90;;;;;;5098953;28;20180;-88
2024/02/22 04:49:50;;;;;;;2.23;1.20;;;11.20;99.90;;;;;;5099300;28;20240;-85
2024/02/22 04:52:16;;;;;;;2.87;1.30;;;11.20;99.90;;;;;;5098118;28;20175;-90
2024/02/22 04:54:43;;;;;;;1.83;1.00;;;11.20;99.90;;;;;;5098636;28;20181;-90
2024/02/22 04:57:09;;;;;;;1.50;1.03;;;11.20;99.90;;;;;;5098365;28;20175;-85
2024/02/22 04:59:34;;;;;;;2.00;1.10;;;11.30;99.90;;;;;;5122893;28;20167;-83
2024/02/22 05:02:00;;;;;;;2.93;0.83;;;11.50;99.90;;;;;;5105331;28;20208;-84
2024/02/22 05:04:27;;;;;;;2.43;1.20;;;11.50;99.90;;;;;;5099905;28;20634;-88
2024/02/22 05:06:53;;;;;;;4.77;1.10;;;11.60;99.90;;;;;;5100401;28;20193;-89
2024/02/22 05:09:18;;;;;;;1.87;1.10;;;11.40;99.90;;;;;;5100836;28;20175;-89
2024/02/22 05:11:48;;;;;;;1.87;1.03;;;11.40;99.90;;;;;;5098099;28;20229;-91
2024/02/22 05:14:16;;;;;;;4.80;1.40;;;11.40;99.90;;;;;;5098339;28;20207;-90
2024/02/22 05:16:42;;;;;;;2.53;1.27;;;11.50;99.90;;;;;;5098108;28;20217;-89
2024/02/22 05:19:08;;;;;;;2.53;1.10;;;11.40;99.90;;;;;;5098217;28;20199;-85
2024/02/22 05:21:34;;;;;;;3.10;1.43;;;11.40;99.90;;;;;;5098004;28;20244;-88
2024/02/22 05:24:00;;;;;;;3.20;1.20;;;11.40;99.90;;;;;;5097729;28;20168;-86
2024/02/22 05:26:27;;;;;;;2.07;1.27;;;11.40;99.90;;;;;;5098020;28;20173;-83
2024/02/22 05:28:53;;;;;;;2.87;1.30;;;11.30;99.90;;;;;;5098580;28;20217;-83
2024/02/22 05:31:25;;;;;;;1.93;1.20;;;11.30;99.90;;;;;;5098139;28;20182;-91
2024/02/22 05:34:15;;;;;;;3.47;1.70;;;11.30;99.90;;;;;;5098593;28;20171;-90
2024/02/22 05:37:09;;;;;;;2.10;1.27;;;11.40;99.90;;;;;;5097580;28;20623;-88
2024/02/22 05:39:35;;;;;;;4.33;1.50;;;11.40;99.90;;;;;;5098769;28;20171;-89
2024/02/22 05:42:21;;;;;;;;;;;;;;;;;;;;;
2024/02/22 05:45:00;;;;;;;2.00;1.30;;;11.20;99.90;;;;;;5116825;28;20169;-90
2024/02/22 05:47:32;;;;;;;2.40;1.30;;;11.10;99.90;;;;;;5097865;28;20185;-91
2024/02/22 05:49:57;;;;;;;1.57;1.20;;;11.10;99.90;;;;;;5114417;28;20177;-86
2024/02/22 05:52:23;;;;;;;2.57;1.17;;;11.00;99.90;;;;;;5097350;28;20185;-89
2024/02/22 05:54:49;;;;;;;7.40;1.40;;;11.00;99.90;;;;;;5096420;28;20198;-87
2024/02/22 05:57:14;;;;;;;3.03;1.40;;;11.10;99.90;;;;;;5097324;28;20171;-88
2024/02/22 05:59:40;;;;;;;1.90;0.90;;;11.10;99.90;;;;;;5114744;28;20196;-83
2024/02/22 06:02:06;;;;;;;2.23;1.03;;;11.10;99.90;;;;;;5114935;28;20211;-89
2024/02/22 06:04:32;;;;;;;2.70;1.30;;;11.10;99.90;;;;;;5114852;28;20257;-87
2024/02/22 06:06:57;;;;;;;1.20;1.00;;;11.10;99.90;;;;;;5097006;28;20172;-88
2024/02/22 06:09:23;;;;;;;1.10;0.80;;;11.10;99.90;;;;;;5114488;28;20526;-85
2024/02/22 06:11:48;;;;;;;5.00;1.20;;;11.00;99.90;;;;;;5096993;28;20176;-84
2024/02/22 06:14:14;;;;;;;1.50;1.00;;;11.00;99.90;;;;;;5096744;28;20211;-90
2024/02/22 06:16:40;;;;;;;1.97;0.97;;;11.00;99.90;;;;;;5097605;28;20174;-82
2024/02/22 06:19:05;;;;;;;1.37;0.83;;;11.00;99.90;;;;;;5097165;28;20210;-87
2024/02/22 06:21:32;;;;;;;1.03;0.87;;;11.10;99.90;;;;;;5115422;28;20197;-86
2024/02/22 06:23:58;;;;;;;3.07;1.23;;;11.10;99.90;;;;;;5096552;28;20181;-87
2024/02/22 06:26:24;;;;;;;3.53;1.20;;;11.00;99.90;;;;;;5097072;28;20255;-87
2024/02/22 06:28:49;;;;;;;2.47;0.90;;;11.00;99.90;;;;;;5097069;28;20646;-85
2024/02/22 06:31:15;;;;;;;1.57;1.00;;;11.20;99.90;;;;;;5096210;28;20175;-85
2024/02/22 06:33:41;;;;;;;1.47;1.00;;;11.00;99.90;;;;;;5096828;28;20186;-88
2024/02/22 06:36:09;;;;;;;1.50;1.00;;;11.00;99.90;;;;;;5097008;28;20166;-89
2024/02/22 06:38:39;;;;;;;1.23;0.90;;;11.10;99.90;;;;;;5095503;28;20227;-84
2024/02/22 06:41:05;;;;;;;1.63;0.80;;;11.10;99.90;;;;;;5096502;28;20619;-88
2024/02/22 06:43:30;;;;;;;2.67;1.10;;;11.00;99.90;;;;;;5094962;28;20221;-84
2024/02/22 06:45:56;;;;;;;1.30;0.90;;;11.00;99.90;;;;;;5097288;28;20170;-92
2024/02/22 06:48:22;;;;;;;2.13;0.80;;;10.90;99.90;;;;;;5097312;28;20737;-85
2024/02/22 06:50:47;;;;;;;2.00;1.00;;;10.80;99.90;;;;;;5094987;28;20286;-83
2024/02/22 06:53:13;;;;;;;2.47;1.00;;;10.90;99.90;;;;;;5094766;28;20183;-85
2024/02/22 06:55:39;;;;;;;3.23;1.00;;;10.80;99.90;;;;;;5093695;28;20251;-85
2024/02/22 06:58:04;;;;;;;1.37;0.90;;;10.80;99.90;;;;;;5095925;28;20414;-90
2024/02/22 07:00:32;;;;;;;3.10;0.90;;;10.90;99.90;;;;;;5093134;28;20165;-84
2024/02/22 07:02:58;;;;;;;2.60;0.93;;;10.90;99.90;;;;;;5091953;28;20207;-83
2024/02/22 07:05:24;;;;;;;3.30;0.80;;;11.00;99.90;;;;;;5072501;28;20198;-84
2024/02/22 07:07:50;;;;;;;2.10;0.97;;;11.10;99.90;;;;;;5107046;28;20650;-90
2024/02/22 07:10:15;;;;;;;1.57;1.00;;;11.10;99.90;;;;;;5075872;28;20179;-88
2024/02/22 07:12:44;;;;;;;2.13;0.90;;;11.10;99.90;;;;;;5111423;28;20180;-90
2024/02/22 07:15:16;;;;;;;1.17;1.00;;;11.10;99.90;;;;;;5115765;28;20226;-93
2024/02/22 07:17:42;;;;;;;1.83;1.00;;;11.20;99.90;;;;;;5112979;28;20639;-88
2024/02/22 07:20:08;;;;;;;1.73;0.90;;;11.20;99.90;;;;;;5080529;28;20290;-87
2024/02/22 07:22:34;;;;;;;2.33;1.03;;;11.30;99.90;;;;;;5077741;28;20247;-90
2024/02/22 07:25:00;;;;;;;1.30;0.80;;;11.30;99.90;;;;;;5113181;28;20166;-87
2024/02/22 07:27:26;;;;;;;1.60;1.10;;;11.30;99.90;;;;;;5111179;28;20182;-84
2024/02/22 07:29:51;;;;;;;1.73;1.20;;;11.40;99.90;;;;;;5094693;28;20161;-85
2024/02/22 07:32:17;;;;;;;3.00;1.67;;;11.50;99.90;;;;;;5074524;28;20193;-87
2024/02/22 07:34:43;;;;;;;2.13;1.30;;;11.50;99.90;;;;;;5097996;28;20692;-83
2024/02/22 07:37:10;;;;;;;2.50;1.40;;;11.50;99.90;;;;;;5095379;28;20185;-94
2024/02/22 07:39:37;;;;;;;5.10;1.43;;;11.50;99.90;;;;;;5095730;28;20175;-93
2024/02/22 07:42:04;;;;;;;2.67;1.63;;;11.60;99.90;;;;;;5094445;28;20192;-91
2024/02/22 07:44:29;;;;;;;2.90;1.87;;;11.50;99.90;;;;;;5094975;28;20190;-85
2024/02/22 07:46:55;;;;;;;3.93;2.10;;;11.60;99.90;;;;;;5096961;28;20190;-90
2024/02/22 07:49:21;;;;;;;3.30;2.30;;;11.50;99.90;;;;;;5093309;28;20191;-84
2024/02/22 07:51:47;;;;;;;3.07;2.17;;;11.50;99.90;;;;;;5092414;28;20311;-87
2024/02/22 07:54:13;;;;;;;2.37;2.00;;;11.40;99.90;;;;;;5091338;28;20278;-89
2024/02/22 07:56:40;;;;;;;8.50;2.90;;;11.40;99.90;;;;;;5091242;28;20205;-89
2024/02/22 07:59:08;;;;;;;6.50;3.00;;;11.40;99.90;;;;;;5093140;28;20175;-88
2024/02/22 08:01:34;;;;;;;4.43;2.50;;;11.50;99.90;;;;;;5091170;28;20207;-85
2024/02/22 08:04:00;;;;;;;7.53;3.43;;;11.60;99.90;;;;;;5109817;28;20260;-84
2024/02/22 08:06:26;;;;;;;14.43;3.80;;;11.60;99.90;;;;;;5091929;28;20204;-87
2024/02/22 08:08:52;;;;;;;3.90;3.20;;;11.60;99.90;;;;;;5092383;28;20244;-85
2024/02/22 08:11:18;;;;;;;4.97;3.67;;;11.70;99.90;;;;;;5091805;28;20995;-85
2024/02/22 08:13:44;;;;;;;3.63;3.23;;;11.70;99.90;;;;;;5096169;28;20210;-89
2024/02/22 08:16:10;;;;;;;4.33;3.93;;;11.80;99.90;;;;;;5095610;28;20174;-84
2024/02/22 08:18:38;;;;;;;5.23;4.00;;;11.80;99.90;;;;;;5094646;28;20217;-88
2024/02/22 08:21:06;;;;;;;5.43;4.93;;;11.80;99.90;;;;;;5094066;28;20183;-85
2024/02/22 08:23:32;;;;;;;5.70;5.10;;;11.70;99.90;;;;;;5095025;28;20209;-86
2024/02/22 08:25:58;;;;;;;6.40;4.97;;;11.90;99.90;;;;;;5095743;28;20585;-87
2024/02/22 08:28:24;;;;;;;5.30;4.77;;;11.90;99.90;;;;;;5097806;28;20174;-91
2024/02/22 08:30:51;;;;;;;6.17;5.57;;;12.00;99.90;;;;;;5095733;28;20175;-89
2024/02/22 08:33:17;;;;;;;5.23;4.73;;;12.00;99.90;;;;;;5096702;28;20274;-89
2024/02/22 08:35:42;;;;;;;6.93;5.10;;;12.00;99.90;;;;;;5097333;28;20218;-91
2024/02/22 08:38:09;;;;;;;5.43;4.90;;;12.00;99.90;;;;;;5098418;28;20235;-86
2024/02/22 08:40:36;;;;;;;9.47;4.83;;;12.00;99.90;;;;;;5096740;28;20582;-89
2024/02/22 08:43:08;;;;;;;5.73;4.70;;;12.00;99.90;;;;;;5098839;28;20213;-90
2024/02/22 08:45:37;;;;;;;6.47;5.33;;;12.10;99.90;;;;;;5104867;28;20187;-90
2024/02/22 08:48:05;;;;;;;4.90;3.83;;;12.20;99.90;;;;;;5100013;28;20197;-94
2024/02/22 08:50:31;;;;;;;7.27;4.17;;;12.20;99.90;;;;;;5099869;28;20204;-89
2024/02/22 08:52:56;;;;;;;4.13;3.10;;;12.30;99.90;;;;;;5101776;28;20210;-85
2024/02/22 08:55:25;;;;;;;3.80;3.07;;;12.40;99.90;;;;;;5100732;28;20187;-90
2024/02/22 08:57:51;;;;;;;3.83;2.47;;;12.40;99.90;;;;;;5099274;28;20177;-91
2024/02/22 09:00:19;;;;;;;2.50;1.60;;;12.50;99.90;;;;;;5081556;28;20197;-91
2024/02/22 09:02:45;;;;;;;4.33;1.80;;;12.50;99.90;;;;;;5094748;28;20271;-87
2024/02/22 09:05:11;;;;;;;1.97;1.40;;;12.60;99.90;;;;;;5095036;28;20182;-88
2024/02/22 09:07:37;;;;;;;2.80;1.53;;;12.50;99.90;;;;;;5094533;28;20185;-91
2024/02/22 09:10:04;;;;;;;3.03;1.80;;;12.60;99.90;;;;;;5094119;28;20179;-87
2024/02/22 09:12:30;;;;;;;3.00;1.60;;;12.60;99.90;;;;;;5094929;28;20176;-86
2024/02/22 09:14:55;;;;;;;2.30;1.70;;;12.60;99.90;;;;;;5094239;28;20182;-87
2024/02/22 09:17:21;;;;;;;7.17;5.57;;;12.70;99.90;;;;;;5093908;28;20198;-89
2024/02/22 09:19:47;;;;;;;2.03;1.53;;;12.60;99.90;;;;;;5093514;28;20674;-88
2024/02/22 09:22:13;;;;;;;3.20;1.60;;;12.70;99.90;;;;;;5094502;28;20230;-89
2024/02/22 09:24:42;;;;;;;2.30;1.50;;;12.60;99.90;;;;;;5088362;28;20177;-87
2024/02/22 09:27:09;;;;;;;2.30;1.40;;;12.60;99.90;;;;;;5093145;28;20186;-87
2024/02/22 09:29:36;;;;;;;3.60;1.57;;;12.60;99.90;;;;;;5094358;28;20193;-83
2024/02/22 09:32:01;;;;;;;2.60;1.47;;;12.60;99.90;;;;;;5112493;28;20179;-83
2024/02/22 09:34:28;;;;;;;2.87;1.30;;;12.60;99.90;;;;;;5093609;28;20182;-85
2024/02/22 09:36:54;;;;;;;2.87;1.37;;;12.60;99.90;;;;;;5093877;28;20186;-89
2024/02/22 09:39:20;;;;;;;1.90;1.27;;;12.70;99.90;;;;;;5094444;28;20183;-84
2024/02/22 09:41:46;;;;;;;1.97;1.27;;;12.70;99.90;;;;;;5112408;28;20187;-94
2024/02/22 09:44:13;;;;;;;2.47;1.43;;;12.80;99.90;;;;;;5093320;28;20190;-89
2024/02/22 09:46:53;;;;;;;2.97;1.30;;;12.80;99.90;;;;;;5097490;28;20187;-84
2024/02/22 09:49:25;;;;;;;1.30;1.20;;;12.80;99.90;;;;;;5099899;28;20257;-83
2024/02/22 09:51:51;;;;;;;2.37;1.30;;;12.90;99.90;;;;;;5114191;28;20223;-92
2024/02/22 09:54:21;;;;;;;3.47;1.70;;;12.90;99.90;;;;;;5094851;28;20190;-96
2024/02/22 09:56:49;;;;;;;2.23;1.60;;;12.90;99.90;;;;;;5094529;28;20187;-89
2024/02/22 09:59:16;;;;;;;2.90;1.70;;;12.90;99.90;;;;;;5095932;28;20235;-82
2024/02/22 10:01:43;;;;;;;2.03;1.53;;;12.90;99.90;;;;;;5121797;28;20210;-85
2024/02/22 10:04:16;;;;;;;6.77;1.73;;;12.90;99.90;;;;;;5125547;28;20242;-86
2024/02/22 10:06:42;;;;;;;1.10;0.97;;;13.00;99.90;;;;;;5108152;28;20174;-94
2024/02/22 10:09:08;;;;;;;1.97;1.40;;;13.00;99.90;;;;;;5104918;28;20170;-82
2024/02/22 10:11:36;;;;;;;2.23;1.57;;;13.00;99.90;;;;;;5104242;28;20167;-83
2024/02/22 10:14:02;;;;;;;2.87;1.30;;;13.10;99.90;;;;;;5103475;28;20182;-82
2024/02/22 10:16:27;;;;;;;1.40;1.20;;;13.10;99.90;;;;;;5104721;28;20644;-81
2024/02/22 10:19:00;;;;;;;1.83;1.10;;;13.10;99.90;;;;;;5103621;28;20681;-86
2024/02/22 10:21:28;;;;;;;1.47;1.07;;;13.00;99.90;;;;;;5094167;28;20228;-89
2024/02/22 10:23:58;;;;;;;3.53;1.10;;;13.00;99.90;;;;;;5093413;28;20196;-87
2024/02/22 10:26:27;;;;;;;1.00;0.90;;;13.00;99.90;;;;;;5112113;28;20169;-87
2024/02/22 10:29:06;;;;;;;2.47;1.07;;;13.10;99.90;;;;;;5093341;28;20259;-92
2024/02/22 10:31:34;;;;;;;2.27;1.30;;;13.00;99.90;;;;;;5090749;28;20169;-89
2024/02/22 10:34:04;;;;;;;4.33;1.53;;;13.10;99.90;;;;;;5110875;28;20209;-82
2024/02/22 10:36:30;;;;;;;2.70;1.53;;;13.10;99.90;;;;;;5092707;28;20236;-84
2024/02/22 10:38:58;;;;;;;3.43;1.20;;;13.10;99.90;;;;;;5092271;28;20176;-90
2024/02/22 10:41:25;;;;;;;1.70;1.00;;;13.00;99.90;;;;;;5094362;28;20254;-83
2024/02/22 10:43:52;;;;;;;2.83;1.40;;;13.00;99.90;;;;;;5110588;28;20266;-90
2024/02/22 10:46:18;;;;;;;1.60;0.90;;;12.90;99.90;;;;;;5090663;28;20913;-92
2024/02/22 10:48:53;;;;;;;2.67;1.20;;;13.00;99.90;;;;;;5110183;28;20190;-91
2024/02/22 10:51:20;;;;;;;2.10;1.30;;;13.10;99.90;;;;;;5091213;28;20181;-84
2024/02/22 10:53:53;;;;;;;4.80;1.67;;;13.10;99.90;;;;;;5096484;28;20187;-89
2024/02/22 10:56:23;;;;;;;0.93;0.90;;;13.10;99.90;;;;;;5096923;28;20258;-89
2024/02/22 10:58:57;;;;;;;2.63;1.40;;;13.20;99.90;;;;;;5095687;28;20179;-88
2024/02/22 11:01:24;;;;;;;1.57;1.00;;;13.10;99.90;;;;;;5114190;28;20186;-91
2024/02/22 11:03:50;;;;;;;1.87;1.07;;;13.20;99.90;;;;;;5095928;28;20223;-83
2024/02/22 11:06:20;;;;;;;2.00;1.00;;;13.20;99.90;;;;;;5112122;28;20177;-92
2024/02/22 11:08:55;;;;;;;3.50;1.30;;;13.20;99.90;;;;;;5092560;28;20610;-84
2024/02/22 11:11:28;;;;;;;1.73;1.00;;;13.20;99.90;;;;;;5091706;28;20653;-85
2024/02/22 11:13:59;;;;;;;2.03;1.07;;;13.20;99.90;;;;;;5092677;28;20181;-86
2024/02/22 11:16:35;;;;;;;3.63;1.10;;;13.20;99.90;;;;;;5091004;28;20213;-91
2024/02/22 11:19:16;;;;;;;1.60;0.93;;;13.40;99.90;;;;;;5089456;28;20238;-88
2024/02/22 11:21:43;;;;;;;2.90;1.03;;;13.40;99.90;;;;;;5109854;28;20194;-90
2024/02/22 11:24:12;;;;;;;1.37;1.00;;;13.40;99.90;;;;;;5091704;28;20264;-87
2024/02/22 11:26:39;;;;;;;2.13;0.80;;;13.40;99.90;;;;;;5094019;28;20249;-92
2024/02/22 11:29:06;;;;;;;1.47;0.90;;;13.40;99.90;;;;;;5092986;28;20181;-84
2024/02/22 11:31:32;;;;;;;1.30;0.80;;;13.40;99.90;;;;;;5112609;28;20175;-88
2024/02/22 11:34:00;;;;;;;1.93;1.00;;;13.50;99.90;;;;;;5091754;28;20198;-81
2024/02/22 11:36:26;;;;;;;1.60;1.00;;;13.60;99.90;;;;;;5091891;28;20182;-89
2024/02/22 11:39:04;;;;;;;1.27;0.80;;;13.60;99.90;;;;;;5090993;28;20606;-86
2024/02/22 11:41:30;;;;;;;1.80;1.10;;;13.70;99.90;;;;;;5091074;28;20174;-84
2024/02/22 11:44:11;;;;;;;1.53;1.00;;;13.70;99.90;;;;;;5092100;28;20302;-84
2024/02/22 11:46:40;;;;;;;1.33;0.90;;;13.80;99.90;;;;;;5091960;28;20181;-90
2024/02/22 11:49:07;;;;;;;1.47;0.83;;;13.80;99.90;;;;;;5096489;28;20188;-90
2024/02/22 11:51:32;;;;;;;2.00;0.80;;;13.90;99.90;;;;;;5097166;28;20284;-92
2024/02/22 11:53:58;;;;;;;1.03;0.70;;;13.90;99.90;;;;;;5100941;28;20180;-83
2024/02/22 11:56:26;;;;;;;3.37;1.07;;;13.90;99.90;;;;;;5101097;28;20174;-88
2024/02/22 11:58:54;;;;;;;1.23;0.80;;;13.90;99.90;;;;;;5096668;28;20175;-89
2024/02/22 12:01:20;;;;;;;1.20;0.80;;;14.00;99.90;;;;;;5095793;28;20201;-87
2024/02/22 12:03:48;;;;;;;1.27;0.80;;;14.00;99.90;;;;;;5096631;28;20401;-88
2024/02/22 12:06:14;;;;;;;1.47;0.80;;;14.10;99.90;;;;;;5097738;28;20171;-92
2024/02/22 12:08:45;;;;;;;1.07;0.70;;;14.00;99.90;;;;;;5100772;28;20646;-91
2024/02/22 12:11:13;;;;;;;1.40;0.90;;;14.00;99.90;;;;;;5102079;28;20181;-89
2024/02/22 12:13:39;;;;;;;0.83;0.63;;;14.10;99.90;;;;;;5096376;28;20250;-87
2024/02/22 12:16:10;;;;;;;0.93;0.60;;;14.10;99.90;;;;;;5123351;28;20194;-84
2024/02/22 12:18:38;;;;;;;2.00;0.70;;;14.20;99.90;;;;;;5109263;28;20175;-85
2024/02/22 12:26:30;;;;;;;1.47;0.80;;;14.10;99.90;;;;;;5051563;28;20677;-87
2024/02/22 12:28:57;;;;;;;1.77;0.90;;;14.20;99.90;;;;;;5042514;28;20207;-84
2024/02/22 12:31:26;;;;;;;2.50;0.80;;;14.20;99.90;;;;;;5040510;28;20174;-87
2024/02/22 12:33:53;;;;;;;0.90;0.70;;;14.20;99.90;;;;;;5050702;28;20204;-87
2024/02/22 12:36:21;;;;;;;1.83;0.87;;;14.20;99.90;;;;;;5052498;28;20563;-88
2024/02/22 12:38:48;;;;;;;1.47;1.00;;;14.10;99.90;;;;;;5045170;28;20186;-87
2024/02/22 12:41:15;;;;;;;1.10;0.73;;;14.10;99.90;;;;;;5054048;28;20259;-84
2024/02/22 12:43:49;;;;;;;1.90;0.80;;;14.10;99.90;;;;;;5043265;28;20205;-90
2024/02/22 12:46:18;;;;;;;0.90;0.70;;;14.10;99.90;;;;;;5037519;28;20192;-91
2024/02/22 12:48:44;;;;;;;2.40;1.00;;;14.20;99.90;;;;;;5037398;28;20177;-87
2024/02/22 12:51:14;;;;;;;1.13;0.80;;;14.00;99.90;;;;;;5049781;28;20225;-92
2024/02/22 12:53:41;;;;;;;1.47;0.80;;;14.00;99.90;;;;;;5044733;28;20177;-84